Terminal Aerodrome Forecast
Issued by NWS Greer, SC

Home | Current Version | Previous Version | Text Only | Print | Product List | Glossary On
Versions: 1 2 3 4 5 6 7 8 9 10 11 12 13 14 15 16 17 18 19 20 21 22 23 24
000
FTUS42 KGSP 231200 CCB
TAFGSP
TAF COR
KGSP 231244Z 2313/2412 00000KT P6SM FEW035
     FM231500 24005KT P6SM BKN040
     FM232100 25005KT P6SM VCTS SCT040CB BKN070
     FM240000 23005KT P6SM SCT070 BKN250=

USA.gov is the U.S. government's official web portal to all federal, state and local government web resources and services.